sensor_id;sensor_type;location;lat;lon;timestamp;P1;durP1;ratioP1;P2;durP2;ratioP2
22034;SDS011;11181;51.002;4.356;2022-10-16T00:00:05;1.20;;;0.80;;
22034;SDS011;11181;51.002;4.356;2022-10-16T00:02:32;1.07;;;0.97;;
22034;SDS011;11181;51.002;4.356;2022-10-16T00:04:59;1.80;;;0.80;;
22034;SDS011;11181;51.002;4.356;2022-10-16T00:07:26;1.73;;;1.00;;
22034;SDS011;11181;51.002;4.356;2022-10-16T00:09:55;1.70;;;0.80;;
22034;SDS011;11181;51.002;4.356;2022-10-16T00:12:21;1.23;;;0.80;;
22034;SDS011;11181;51.002;4.356;2022-10-16T00:14:48;1.70;;;0.73;;
22034;SDS011;11181;51.002;4.356;2022-10-16T00:17:15;1.63;;;0.80;;
22034;SDS011;11181;51.002;4.356;2022-10-16T00:19:42;2.00;;;0.80;;
22034;SDS011;11181;51.002;4.356;2022-10-16T00:22:09;1.00;;;0.70;;
22034;SDS011;11181;51.002;4.356;2022-10-16T00:24:36;1.40;;;0.73;;
22034;SDS011;11181;51.002;4.356;2022-10-16T00:27:04;1.23;;;0.90;;
22034;SDS011;11181;51.002;4.356;2022-10-16T00:29:31;2.03;;;0.80;;
22034;SDS011;11181;51.002;4.356;2022-10-16T00:31:58;2.20;;;0.70;;
22034;SDS011;11181;51.002;4.356;2022-10-16T00:34:25;0.97;;;0.80;;
22034;SDS011;11181;51.002;4.356;2022-10-16T00:36:52;1.87;;;0.80;;
22034;SDS011;11181;51.002;4.356;2022-10-16T00:39:19;1.33;;;0.70;;
22034;SDS011;11181;51.002;4.356;2022-10-16T00:41:46;0.90;;;0.63;;
22034;SDS011;11181;51.002;4.356;2022-10-16T00:47:11;1.13;;;0.93;;
22034;SDS011;11181;51.002;4.356;2022-10-16T00:49:43;1.53;;;1.07;;
22034;SDS011;11181;51.002;4.356;2022-10-16T00:52:10;1.33;;;0.87;;
22034;SDS011;11181;51.002;4.356;2022-10-16T00:54:39;0.90;;;0.87;;
22034;SDS011;11181;51.002;4.356;2022-10-16T00:57:06;3.40;;;0.90;;
22034;SDS011;11181;51.002;4.356;2022-10-16T00:59:34;1.63;;;0.90;;
22034;SDS011;11181;51.002;4.356;2022-10-16T01:02:04;2.60;;;0.90;;
22034;SDS011;11181;51.002;4.356;2022-10-16T01:04:33;1.90;;;0.80;;
22034;SDS011;11181;51.002;4.356;2022-10-16T01:07:04;0.80;;;0.80;;
22034;SDS011;11181;51.002;4.356;2022-10-16T01:09:39;3.60;;;0.90;;
22034;SDS011;11181;51.002;4.356;2022-10-16T01:12:16;2.40;;;0.80;;
22034;SDS011;11181;51.002;4.356;2022-10-16T01:14:51;0.80;;;0.70;;
22034;SDS011;11181;51.002;4.356;2022-10-16T01:17:22;0.73;;;0.70;;
22034;SDS011;11181;51.002;4.356;2022-10-16T01:20:00;1.17;;;1.07;;
22034;SDS011;11181;51.002;4.356;2022-10-16T01:22:37;2.10;;;1.10;;
22034;SDS011;11181;51.002;4.356;2022-10-16T01:25:11;2.80;;;1.20;;
22034;SDS011;11181;51.002;4.356;2022-10-16T01:27:44;1.57;;;0.87;;
22034;SDS011;11181;51.002;4.356;2022-10-16T01:30:13;1.23;;;1.10;;
22034;SDS011;11181;51.002;4.356;2022-10-16T01:32:44;2.27;;;1.50;;
22034;SDS011;11181;51.002;4.356;2022-10-16T01:35:18;1.33;;;1.10;;
22034;SDS011;11181;51.002;4.356;2022-10-16T01:37:48;1.60;;;0.97;;
22034;SDS011;11181;51.002;4.356;2022-10-16T01:40:20;2.20;;;1.37;;
22034;SDS011;11181;51.002;4.356;2022-10-16T01:42:52;3.77;;;1.23;;
22034;SDS011;11181;51.002;4.356;2022-10-16T01:45:23;1.63;;;1.13;;
22034;SDS011;11181;51.002;4.356;2022-10-16T01:47:50;2.30;;;1.00;;
22034;SDS011;11181;51.002;4.356;2022-10-16T01:50:19;1.70;;;1.30;;
22034;SDS011;11181;51.002;4.356;2022-10-16T01:52:48;3.67;;;1.30;;
22034;SDS011;11181;51.002;4.356;2022-10-16T01:55:19;1.20;;;1.00;;
22034;SDS011;11181;51.002;4.356;2022-10-16T01:57:50;2.47;;;1.43;;
22034;SDS011;11181;51.002;4.356;2022-10-16T02:00:20;1.67;;;1.20;;
22034;SDS011;11181;51.002;4.356;2022-10-16T02:02:50;3.80;;;1.40;;
22034;SDS011;11181;51.002;4.356;2022-10-16T02:05:21;2.13;;;1.07;;
22034;SDS011;11181;51.002;4.356;2022-10-16T02:07:51;1.60;;;1.10;;
22034;SDS011;11181;51.002;4.356;2022-10-16T02:10:18;3.27;;;1.47;;
22034;SDS011;11181;51.002;4.356;2022-10-16T02:12:45;1.47;;;1.00;;
22034;SDS011;11181;51.002;4.356;2022-10-16T02:15:18;3.37;;;1.27;;
22034;SDS011;11181;51.002;4.356;2022-10-16T02:17:45;1.87;;;1.30;;
22034;SDS011;11181;51.002;4.356;2022-10-16T02:20:11;2.60;;;1.23;;
22034;SDS011;11181;51.002;4.356;2022-10-16T02:22:39;1.20;;;1.10;;
22034;SDS011;11181;51.002;4.356;2022-10-16T02:25:10;2.17;;;1.40;;
22034;SDS011;11181;51.002;4.356;2022-10-16T02:27:44;1.40;;;1.10;;
22034;SDS011;11181;51.002;4.356;2022-10-16T02:30:17;4.77;;;1.20;;
22034;SDS011;11181;51.002;4.356;2022-10-16T02:32:51;1.43;;;1.33;;
22034;SDS011;11181;51.002;4.356;2022-10-16T02:35:19;2.77;;;1.00;;
22034;SDS011;11181;51.002;4.356;2022-10-16T02:37:48;2.37;;;1.47;;
22034;SDS011;11181;51.002;4.356;2022-10-16T02:40:17;2.63;;;1.10;;
22034;SDS011;11181;51.002;4.356;2022-10-16T02:42:49;3.10;;;1.20;;
22034;SDS011;11181;51.002;4.356;2022-10-16T02:45:17;2.27;;;1.30;;
22034;SDS011;11181;51.002;4.356;2022-10-16T02:47:45;1.93;;;1.20;;
22034;SDS011;11181;51.002;4.356;2022-10-16T02:50:12;3.33;;;1.87;;
22034;SDS011;11181;51.002;4.356;2022-10-16T02:52:39;1.93;;;1.20;;
22034;SDS011;11181;51.002;4.356;2022-10-16T02:55:06;1.90;;;1.20;;
22034;SDS011;11181;51.002;4.356;2022-10-16T02:57:33;2.10;;;1.60;;
22034;SDS011;11181;51.002;4.356;2022-10-16T03:00:02;3.10;;;1.20;;
22034;SDS011;11181;51.002;4.356;2022-10-16T03:02:29;2.20;;;1.40;;
22034;SDS011;11181;51.002;4.356;2022-10-16T03:04:57;1.40;;;1.30;;
22034;SDS011;11181;51.002;4.356;2022-10-16T03:07:24;1.57;;;1.27;;
22034;SDS011;11181;51.002;4.356;2022-10-16T03:09:51;3.27;;;1.67;;
22034;SDS011;11181;51.002;4.356;2022-10-16T03:12:19;5.50;;;1.30;;
22034;SDS011;11181;51.002;4.356;2022-10-16T03:14:46;2.03;;;1.30;;
22034;SDS011;11181;51.002;4.356;2022-10-16T03:17:13;1.23;;;1.13;;
22034;SDS011;11181;51.002;4.356;2022-10-16T03:19:41;1.87;;;1.30;;
22034;SDS011;11181;51.002;4.356;2022-10-16T03:22:10;2.10;;;1.40;;
22034;SDS011;11181;51.002;4.356;2022-10-16T03:24:37;3.03;;;1.20;;
22034;SDS011;11181;51.002;4.356;2022-10-16T03:27:04;1.03;;;0.93;;
22034;SDS011;11181;51.002;4.356;2022-10-16T03:29:31;4.00;;;1.10;;
22034;SDS011;11181;51.002;4.356;2022-10-16T03:31:58;1.97;;;1.27;;
22034;SDS011;11181;51.002;4.356;2022-10-16T03:34:25;3.00;;;1.60;;
22034;SDS011;11181;51.002;4.356;2022-10-16T03:36:52;2.33;;;1.13;;
22034;SDS011;11181;51.002;4.356;2022-10-16T03:39:21;1.53;;;1.30;;
22034;SDS011;11181;51.002;4.356;2022-10-16T03:41:48;2.87;;;1.03;;
22034;SDS011;11181;51.002;4.356;2022-10-16T03:44:15;1.67;;;1.30;;
22034;SDS011;11181;51.002;4.356;2022-10-16T03:46:42;4.40;;;1.07;;
22034;SDS011;11181;51.002;4.356;2022-10-16T03:49:09;1.20;;;1.00;;
22034;SDS011;11181;51.002;4.356;2022-10-16T03:51:35;3.77;;;1.70;;
22034;SDS011;11181;51.002;4.356;2022-10-16T03:54:02;2.47;;;1.50;;
22034;SDS011;11181;51.002;4.356;2022-10-16T03:56:31;1.20;;;1.10;;
22034;SDS011;11181;51.002;4.356;2022-10-16T03:58:58;2.33;;;1.20;;
22034;SDS011;11181;51.002;4.356;2022-10-16T04:01:24;2.70;;;1.40;;
22034;SDS011;11181;51.002;4.356;2022-10-16T04:03:51;3.13;;;1.17;;
22034;SDS011;11181;51.002;4.356;2022-10-16T04:06:18;1.67;;;1.40;;
22034;SDS011;11181;51.002;4.356;2022-10-16T04:08:45;2.80;;;1.17;;
22034;SDS011;11181;51.002;4.356;2022-10-16T04:11:12;2.60;;;1.73;;
22034;SDS011;11181;51.002;4.356;2022-10-16T04:13:40;2.17;;;1.67;;
22034;SDS011;11181;51.002;4.356;2022-10-16T04:16:07;2.93;;;1.47;;
22034;SDS011;11181;51.002;4.356;2022-10-16T04:18:34;3.80;;;1.47;;
22034;SDS011;11181;51.002;4.356;2022-10-16T04:21:04;4.07;;;1.40;;
22034;SDS011;11181;51.002;4.356;2022-10-16T04:23:31;2.20;;;1.63;;
22034;SDS011;11181;51.002;4.356;2022-10-16T04:25:59;1.27;;;1.17;;
22034;SDS011;11181;51.002;4.356;2022-10-16T04:28:26;2.03;;;1.27;;
22034;SDS011;11181;51.002;4.356;2022-10-16T04:30:54;3.13;;;1.57;;
22034;SDS011;11181;51.002;4.356;2022-10-16T04:33:21;5.27;;;1.60;;
22034;SDS011;11181;51.002;4.356;2022-10-16T04:35:48;3.00;;;1.30;;
22034;SDS011;11181;51.002;4.356;2022-10-16T04:38:21;2.60;;;1.33;;
22034;SDS011;11181;51.002;4.356;2022-10-16T04:40:48;3.17;;;1.50;;
22034;SDS011;11181;51.002;4.356;2022-10-16T04:43:15;2.20;;;1.67;;
22034;SDS011;11181;51.002;4.356;2022-10-16T04:45:42;2.53;;;1.60;;
22034;SDS011;11181;51.002;4.356;2022-10-16T04:48:10;2.37;;;2.07;;
22034;SDS011;11181;51.002;4.356;2022-10-16T04:50:37;2.20;;;1.67;;
22034;SDS011;11181;51.002;4.356;2022-10-16T04:53:04;4.67;;;2.17;;
22034;SDS011;11181;51.002;4.356;2022-10-16T04:55:31;1.93;;;1.50;;
22034;SDS011;11181;51.002;4.356;2022-10-16T04:57:58;3.20;;;2.33;;
22034;SDS011;11181;51.002;4.356;2022-10-16T05:00:25;3.23;;;1.70;;
22034;SDS011;11181;51.002;4.356;2022-10-16T05:02:52;3.00;;;1.40;;
22034;SDS011;11181;51.002;4.356;2022-10-16T05:05:21;2.37;;;1.43;;
22034;SDS011;11181;51.002;4.356;2022-10-16T05:07:48;2.33;;;1.40;;
22034;SDS011;11181;51.002;4.356;2022-10-16T05:10:15;2.57;;;1.37;;
22034;SDS011;11181;51.002;4.356;2022-10-16T05:12:42;3.57;;;1.90;;
22034;SDS011;11181;51.002;4.356;2022-10-16T05:15:09;7.53;;;2.07;;
22034;SDS011;11181;51.002;4.356;2022-10-16T05:17:36;3.73;;;1.57;;
22034;SDS011;11181;51.002;4.356;2022-10-16T05:20:04;2.33;;;1.50;;
22034;SDS011;11181;51.002;4.356;2022-10-16T05:22:33;2.93;;;1.60;;
22034;SDS011;11181;51.002;4.356;2022-10-16T05:24:59;3.20;;;1.47;;
22034;SDS011;11181;51.002;4.356;2022-10-16T05:27:26;2.03;;;1.57;;
22034;SDS011;11181;51.002;4.356;2022-10-16T05:29:53;1.53;;;1.40;;
22034;SDS011;11181;51.002;4.356;2022-10-16T05:32:20;4.27;;;1.83;;
22034;SDS011;11181;51.002;4.356;2022-10-16T05:34:47;5.37;;;1.80;;
22034;SDS011;11181;51.002;4.356;2022-10-16T05:37:14;4.27;;;2.03;;
22034;SDS011;11181;51.002;4.356;2022-10-16T05:39:42;2.63;;;1.70;;
22034;SDS011;11181;51.002;4.356;2022-10-16T05:42:09;3.40;;;1.30;;
22034;SDS011;11181;51.002;4.356;2022-10-16T05:44:36;3.63;;;1.97;;
22034;SDS011;11181;51.002;4.356;2022-10-16T05:47:03;3.97;;;1.30;;
22034;SDS011;11181;51.002;4.356;2022-10-16T05:49:29;4.00;;;1.50;;
22034;SDS011;11181;51.002;4.356;2022-10-16T05:51:56;4.07;;;1.87;;
22034;SDS011;11181;51.002;4.356;2022-10-16T05:54:23;1.83;;;1.33;;
22034;SDS011;11181;51.002;4.356;2022-10-16T05:56:51;6.13;;;1.47;;
22034;SDS011;11181;51.002;4.356;2022-10-16T05:59:18;4.23;;;1.83;;
22034;SDS011;11181;51.002;4.356;2022-10-16T06:01:45;3.43;;;1.67;;
22034;SDS011;11181;51.002;4.356;2022-10-16T06:04:12;1.97;;;1.30;;
22034;SDS011;11181;51.002;4.356;2022-10-16T06:06:39;3.60;;;1.70;;
22034;SDS011;11181;51.002;4.356;2022-10-16T06:09:06;3.20;;;1.60;;
22034;SDS011;11181;51.002;4.356;2022-10-16T06:11:33;2.97;;;1.83;;
22034;SDS011;11181;51.002;4.356;2022-10-16T06:14:02;4.27;;;1.80;;
22034;SDS011;11181;51.002;4.356;2022-10-16T06:16:32;5.23;;;1.80;;
22034;SDS011;11181;51.002;4.356;2022-10-16T06:18:59;2.50;;;1.77;;
22034;SDS011;11181;51.002;4.356;2022-10-16T06:21:27;2.70;;;1.70;;
22034;SDS011;11181;51.002;4.356;2022-10-16T06:23:55;3.50;;;1.73;;
22034;SDS011;11181;51.002;4.356;2022-10-16T06:26:24;2.50;;;1.60;;
22034;SDS011;11181;51.002;4.356;2022-10-16T06:28:53;3.43;;;1.67;;
22034;SDS011;11181;51.002;4.356;2022-10-16T06:31:22;3.30;;;1.97;;
22034;SDS011;11181;51.002;4.356;2022-10-16T06:33:52;2.23;;;1.60;;
22034;SDS011;11181;51.002;4.356;2022-10-16T06:36:20;4.17;;;1.80;;
22034;SDS011;11181;51.002;4.356;2022-10-16T06:38:47;2.03;;;1.57;;
22034;SDS011;11181;51.002;4.356;2022-10-16T06:41:15;3.97;;;1.57;;
22034;SDS011;11181;51.002;4.356;2022-10-16T06:43:43;4.23;;;1.70;;
22034;SDS011;11181;51.002;4.356;2022-10-16T06:46:11;4.80;;;1.87;;
22034;SDS011;11181;51.002;4.356;2022-10-16T06:48:41;3.17;;;1.90;;
22034;SDS011;11181;51.002;4.356;2022-10-16T06:51:09;2.30;;;1.47;;
22034;SDS011;11181;51.002;4.356;2022-10-16T06:53:38;5.10;;;1.97;;
22034;SDS011;11181;51.002;4.356;2022-10-16T06:56:06;2.10;;;1.33;;
22034;SDS011;11181;51.002;4.356;2022-10-16T06:58:34;2.40;;;1.50;;
22034;SDS011;11181;51.002;4.356;2022-10-16T07:01:01;3.33;;;1.50;;
22034;SDS011;11181;51.002;4.356;2022-10-16T07:03:27;3.37;;;1.77;;
22034;SDS011;11181;51.002;4.356;2022-10-16T07:05:56;2.20;;;1.67;;
22034;SDS011;11181;51.002;4.356;2022-10-16T07:08:23;2.37;;;1.50;;
22034;SDS011;11181;51.002;4.356;2022-10-16T07:10:57;2.17;;;1.60;;
22034;SDS011;11181;51.002;4.356;2022-10-16T07:13:25;2.77;;;1.23;;
22034;SDS011;11181;51.002;4.356;2022-10-16T07:15:52;2.77;;;1.60;;
22034;SDS011;11181;51.002;4.356;2022-10-16T07:18:19;6.43;;;1.73;;
22034;SDS011;11181;51.002;4.356;2022-10-16T07:20:45;1.93;;;1.30;;
22034;SDS011;11181;51.002;4.356;2022-10-16T07:23:14;1.67;;;1.37;;
22034;SDS011;11181;51.002;4.356;2022-10-16T07:25:41;3.00;;;1.63;;
22034;SDS011;11181;51.002;4.356;2022-10-16T07:28:07;2.13;;;1.20;;
22034;SDS011;11181;51.002;4.356;2022-10-16T07:30:35;6.10;;;2.90;;
22034;SDS011;11181;51.002;4.356;2022-10-16T07:33:03;3.13;;;1.70;;
22034;SDS011;11181;51.002;4.356;2022-10-16T07:35:30;3.07;;;1.33;;
22034;SDS011;11181;51.002;4.356;2022-10-16T07:37:57;4.93;;;1.77;;
22034;SDS011;11181;51.002;4.356;2022-10-16T07:40:25;5.27;;;1.87;;
22034;SDS011;11181;51.002;4.356;2022-10-16T07:42:53;3.03;;;1.80;;
22034;SDS011;11181;51.002;4.356;2022-10-16T07:45:19;2.10;;;1.03;;
22034;SDS011;11181;51.002;4.356;2022-10-16T07:47:46;2.60;;;1.30;;
22034;SDS011;11181;51.002;4.356;2022-10-16T07:50:13;2.17;;;1.00;;
22034;SDS011;11181;51.002;4.356;2022-10-16T07:52:40;3.20;;;1.43;;
22034;SDS011;11181;51.002;4.356;2022-10-16T07:55:07;2.60;;;1.47;;
22034;SDS011;11181;51.002;4.356;2022-10-16T07:57:36;3.27;;;1.70;;
22034;SDS011;11181;51.002;4.356;2022-10-16T08:00:03;2.70;;;1.27;;
22034;SDS011;11181;51.002;4.356;2022-10-16T08:02:31;3.87;;;1.43;;
22034;SDS011;11181;51.002;4.356;2022-10-16T08:04:58;3.53;;;1.33;;
22034;SDS011;11181;51.002;4.356;2022-10-16T08:07:25;2.13;;;1.13;;
22034;SDS011;11181;51.002;4.356;2022-10-16T08:09:52;2.73;;;1.47;;
22034;SDS011;11181;51.002;4.356;2022-10-16T08:12:19;6.87;;;1.47;;
22034;SDS011;11181;51.002;4.356;2022-10-16T08:14:48;3.77;;;1.80;;
22034;SDS011;11181;51.002;4.356;2022-10-16T08:17:15;2.50;;;1.33;;
22034;SDS011;11181;51.002;4.356;2022-10-16T08:19:44;4.00;;;1.60;;
22034;SDS011;11181;51.002;4.356;2022-10-16T08:22:11;5.07;;;1.30;;
22034;SDS011;11181;51.002;4.356;2022-10-16T08:24:42;3.27;;;1.33;;
22034;SDS011;11181;51.002;4.356;2022-10-16T08:27:09;2.20;;;1.43;;
22034;SDS011;11181;51.002;4.356;2022-10-16T08:29:37;1.40;;;1.03;;
22034;SDS011;11181;51.002;4.356;2022-10-16T08:32:08;5.53;;;1.37;;
22034;SDS011;11181;51.002;4.356;2022-10-16T08:34:36;1.70;;;1.50;;
22034;SDS011;11181;51.002;4.356;2022-10-16T08:37:05;1.70;;;1.03;;
22034;SDS011;11181;51.002;4.356;2022-10-16T08:39:33;1.67;;;1.10;;
22034;SDS011;11181;51.002;4.356;2022-10-16T08:42:06;3.93;;;1.20;;
22034;SDS011;11181;51.002;4.356;2022-10-16T08:45:01;1.53;;;0.90;;
22034;SDS011;11181;51.002;4.356;2022-10-16T08:47:51;1.53;;;0.93;;
22034;SDS011;11181;51.002;4.356;2022-10-16T08:50:26;2.30;;;1.10;;
22034;SDS011;11181;51.002;4.356;2022-10-16T08:52:54;3.20;;;1.10;;
22034;SDS011;11181;51.002;4.356;2022-10-16T08:55:33;3.23;;;1.20;;
22034;SDS011;11181;51.002;4.356;2022-10-16T08:58:10;2.30;;;0.97;;
22034;SDS011;11181;51.002;4.356;2022-10-16T09:00:38;2.27;;;1.20;;
22034;SDS011;11181;51.002;4.356;2022-10-16T09:03:10;2.13;;;1.10;;
22034;SDS011;11181;51.002;4.356;2022-10-16T09:06:07;3.43;;;1.13;;
22034;SDS011;11181;51.002;4.356;2022-10-16T09:08:44;4.20;;;1.07;;
22034;SDS011;11181;51.002;4.356;2022-10-16T09:11:21;6.27;;;1.00;;
22034;SDS011;11181;51.002;4.356;2022-10-16T09:13:58;3.67;;;0.90;;
22034;SDS011;11181;51.002;4.356;2022-10-16T09:16:33;6.17;;;1.83;;
22034;SDS011;11181;51.002;4.356;2022-10-16T09:19:05;2.73;;;1.00;;
22034;SDS011;11181;51.002;4.356;2022-10-16T09:21:40;7.30;;;1.27;;
22034;SDS011;11181;51.002;4.356;2022-10-16T09:24:09;5.00;;;1.20;;
22034;SDS011;11181;51.002;4.356;2022-10-16T09:26:40;3.63;;;1.00;;
22034;SDS011;11181;51.002;4.356;2022-10-16T09:29:08;3.90;;;1.50;;
22034;SDS011;11181;51.002;4.356;2022-10-16T09:31:37;5.27;;;1.03;;
22034;SDS011;11181;51.002;4.356;2022-10-16T09:34:05;5.20;;;1.33;;
22034;SDS011;11181;51.002;4.356;2022-10-16T09:36:44;3.13;;;1.40;;
22034;SDS011;11181;51.002;4.356;2022-10-16T09:39:12;4.73;;;0.90;;
22034;SDS011;11181;51.002;4.356;2022-10-16T09:41:39;2.70;;;1.13;;
22034;SDS011;11181;51.002;4.356;2022-10-16T09:44:15;3.17;;;1.27;;
22034;SDS011;11181;51.002;4.356;2022-10-16T09:46:47;2.63;;;0.98;;
22034;SDS011;11181;51.002;4.356;2022-10-16T09:49:22;6.32;;;1.10;;
22034;SDS011;11181;51.002;4.356;2022-10-16T09:51:50;2.15;;;0.90;;
22034;SDS011;11181;51.002;4.356;2022-10-16T09:54:28;2.00;;;0.90;;
22034;SDS011;11181;51.002;4.356;2022-10-16T09:57:03;3.33;;;0.95;;
22034;SDS011;11181;51.002;4.356;2022-10-16T09:59:31;10.02;;;1.30;;
22034;SDS011;11181;51.002;4.356;2022-10-16T10:02:01;4.20;;;1.20;;
22034;SDS011;11181;51.002;4.356;2022-10-16T10:04:38;3.67;;;1.00;;
22034;SDS011;11181;51.002;4.356;2022-10-16T10:07:15;2.70;;;0.90;;
22034;SDS011;11181;51.002;4.356;2022-10-16T10:09:45;5.00;;;1.30;;
22034;SDS011;11181;51.002;4.356;2022-10-16T10:12:17;5.60;;;1.10;;
22034;SDS011;11181;51.002;4.356;2022-10-16T10:14:46;3.22;;;1.00;;
22034;SDS011;11181;51.002;4.356;2022-10-16T10:17:16;3.25;;;0.98;;
22034;SDS011;11181;51.002;4.356;2022-10-16T10:19:47;4.50;;;1.05;;
22034;SDS011;11181;51.002;4.356;2022-10-16T10:22:26;3.20;;;1.00;;
22034;SDS011;11181;51.002;4.356;2022-10-16T10:24:56;6.28;;;1.25;;
22034;SDS011;11181;51.002;4.356;2022-10-16T10:27:29;1.40;;;0.75;;
22034;SDS011;11181;51.002;4.356;2022-10-16T10:30:03;6.43;;;1.42;;
22034;SDS011;11181;51.002;4.356;2022-10-16T10:32:43;4.80;;;0.70;;
22034;SDS011;11181;51.002;4.356;2022-10-16T10:35:22;2.88;;;0.95;;
22034;SDS011;11181;51.002;4.356;2022-10-16T10:38:00;6.00;;;1.83;;
22034;SDS011;11181;51.002;4.356;2022-10-16T10:40:39;1.70;;;0.80;;
22034;SDS011;11181;51.002;4.356;2022-10-16T10:43:14;3.17;;;0.73;;
22034;SDS011;11181;51.002;4.356;2022-10-16T10:45:54;3.00;;;0.90;;
22034;SDS011;11181;51.002;4.356;2022-10-16T10:51:32;3.40;;;1.02;;
22034;SDS011;11181;51.002;4.356;2022-10-16T10:54:09;1.63;;;0.90;;
22034;SDS011;11181;51.002;4.356;2022-10-16T10:56:43;5.95;;;1.70;;
22034;SDS011;11181;51.002;4.356;2022-10-16T10:59:30;3.63;;;1.00;;
22034;SDS011;11181;51.002;4.356;2022-10-16T11:02:16;4.78;;;1.33;;
22034;SDS011;11181;51.002;4.356;2022-10-16T11:07:49;4.38;;;0.88;;
22034;SDS011;11181;51.002;4.356;2022-10-16T11:10:21;3.53;;;0.95;;
22034;SDS011;11181;51.002;4.356;2022-10-16T11:12:52;2.80;;;0.88;;
22034;SDS011;11181;51.002;4.356;2022-10-16T11:15:24;2.75;;;0.93;;
22034;SDS011;11181;51.002;4.356;2022-10-16T11:17:55;2.83;;;0.77;;
22034;SDS011;11181;51.002;4.356;2022-10-16T11:20:31;3.63;;;0.80;;
22034;SDS011;11181;51.002;4.356;2022-10-16T11:23:02;2.33;;;0.88;;
22034;SDS011;11181;51.002;4.356;2022-10-16T11:25:33;2.60;;;0.90;;
22034;SDS011;11181;51.002;4.356;2022-10-16T11:28:01;4.50;;;0.60;;
22034;SDS011;11181;51.002;4.356;2022-10-16T11:30:39;3.53;;;0.75;;
22034;SDS011;11181;51.002;4.356;2022-10-16T11:33:14;3.50;;;1.50;;
22034;SDS011;11181;51.002;4.356;2022-10-16T11:35:53;4.70;;;0.73;;
22034;SDS011;11181;51.002;4.356;2022-10-16T11:38:28;2.17;;;0.85;;
22034;SDS011;11181;51.002;4.356;2022-10-16T11:41:00;5.03;;;1.30;;
22034;SDS011;11181;51.002;4.356;2022-10-16T11:43:35;3.50;;;0.80;;
22034;SDS011;11181;51.002;4.356;2022-10-16T11:46:08;2.08;;;0.63;;
22034;SDS011;11181;51.002;4.356;2022-10-16T11:48:39;3.55;;;0.82;;
22034;SDS011;11181;51.002;4.356;2022-10-16T11:51:16;2.90;;;1.00;;
22034;SDS011;11181;51.002;4.356;2022-10-16T11:53:55;1.40;;;0.60;;
22034;SDS011;11181;51.002;4.356;2022-10-16T11:56:26;2.42;;;0.80;;
22034;SDS011;11181;51.002;4.356;2022-10-16T11:58:57;2.92;;;0.63;;
22034;SDS011;11181;51.002;4.356;2022-10-16T12:01:28;3.33;;;0.88;;
22034;SDS011;11181;51.002;4.356;2022-10-16T12:04:02;2.90;;;0.82;;
22034;SDS011;11181;51.002;4.356;2022-10-16T12:06:40;3.17;;;0.75;;
22034;SDS011;11181;51.002;4.356;2022-10-16T12:09:13;2.63;;;0.73;;
22034;SDS011;11181;51.002;4.356;2022-10-16T12:11:45;2.15;;;0.75;;
22034;SDS011;11181;51.002;4.356;2022-10-16T12:14:20;4.70;;;0.80;;
22034;SDS011;11181;51.002;4.356;2022-10-16T12:17:00;3.80;;;1.35;;
22034;SDS011;11181;51.002;4.356;2022-10-16T12:19:30;3.92;;;0.70;;
22034;SDS011;11181;51.002;4.356;2022-10-16T12:21:59;2.70;;;0.85;;
22034;SDS011;11181;51.002;4.356;2022-10-16T12:24:32;1.17;;;0.60;;
22034;SDS011;11181;51.002;4.356;2022-10-16T12:27:01;3.70;;;0.75;;
22034;SDS011;11181;51.002;4.356;2022-10-16T12:29:32;2.58;;;0.60;;
22034;SDS011;11181;51.002;4.356;2022-10-16T12:32:02;3.83;;;0.85;;
22034;SDS011;11181;51.002;4.356;2022-10-16T12:34:32;3.75;;;0.80;;
22034;SDS011;11181;51.002;4.356;2022-10-16T12:37:08;1.88;;;0.85;;
22034;SDS011;11181;51.002;4.356;2022-10-16T12:39:40;3.08;;;0.88;;
22034;SDS011;11181;51.002;4.356;2022-10-16T12:42:19;2.35;;;0.82;;
22034;SDS011;11181;51.002;4.356;2022-10-16T12:44:49;1.85;;;0.70;;
22034;SDS011;11181;51.002;4.356;2022-10-16T12:47:20;1.92;;;0.57;;
22034;SDS011;11181;51.002;4.356;2022-10-16T12:49:49;2.17;;;0.82;;
22034;SDS011;11181;51.002;4.356;2022-10-16T12:52:25;2.83;;;0.80;;
22034;SDS011;11181;51.002;4.356;2022-10-16T12:54:57;1.98;;;0.93;;
22034;SDS011;11181;51.002;4.356;2022-10-16T12:57:38;2.42;;;0.70;;
22034;SDS011;11181;51.002;4.356;2022-10-16T13:00:12;2.50;;;0.85;;
22034;SDS011;11181;51.002;4.356;2022-10-16T13:05:52;2.60;;;0.80;;
22034;SDS011;11181;51.002;4.356;2022-10-16T13:08:33;2.25;;;0.50;;
22034;SDS011;11181;51.002;4.356;2022-10-16T13:11:14;2.17;;;0.70;;
22034;SDS011;11181;51.002;4.356;2022-10-16T13:13:59;3.15;;;0.60;;
22034;SDS011;11181;51.002;4.356;2022-10-16T13:16:46;3.47;;;0.68;;
22034;SDS011;11181;51.002;4.356;2022-10-16T13:19:24;1.90;;;0.90;;
22034;SDS011;11181;51.002;4.356;2022-10-16T13:22:01;1.27;;;0.75;;
22034;SDS011;11181;51.002;4.356;2022-10-16T13:24:40;3.75;;;0.77;;
22034;SDS011;11181;51.002;4.356;2022-10-16T13:27:18;2.53;;;0.60;;
22034;SDS011;11181;51.002;4.356;2022-10-16T13:29:52;4.38;;;0.90;;
22034;SDS011;11181;51.002;4.356;2022-10-16T13:32:26;2.72;;;0.77;;
22034;SDS011;11181;51.002;4.356;2022-10-16T13:34:54;2.47;;;0.80;;
22034;SDS011;11181;51.002;4.356;2022-10-16T13:37:22;2.38;;;0.77;;
22034;SDS011;11181;51.002;4.356;2022-10-16T13:39:50;1.40;;;0.80;;
22034;SDS011;11181;51.002;4.356;2022-10-16T13:42:20;1.40;;;1.08;;
22034;SDS011;11181;51.002;4.356;2022-10-16T13:44:52;1.23;;;0.77;;
22034;SDS011;11181;51.002;4.356;2022-10-16T13:47:21;2.17;;;0.65;;
22034;SDS011;11181;51.002;4.356;2022-10-16T13:49:58;0.60;;;0.52;;
22034;SDS011;11181;51.002;4.356;2022-10-16T13:52:26;3.10;;;0.93;;
22034;SDS011;11181;51.002;4.356;2022-10-16T13:54:53;1.08;;;0.88;;
22034;SDS011;11181;51.002;4.356;2022-10-16T13:57:23;2.17;;;0.55;;
22034;SDS011;11181;51.002;4.356;2022-10-16T13:59:50;2.58;;;0.82;;
22034;SDS011;11181;51.002;4.356;2022-10-16T14:02:19;2.00;;;0.90;;
22034;SDS011;11181;51.002;4.356;2022-10-16T14:04:50;1.77;;;0.82;;
22034;SDS011;11181;51.002;4.356;2022-10-16T14:07:20;2.13;;;0.77;;
22034;SDS011;11181;51.002;4.356;2022-10-16T14:09:50;1.75;;;0.68;;
22034;SDS011;11181;51.002;4.356;2022-10-16T14:12:19;4.68;;;1.00;;
22034;SDS011;11181;51.002;4.356;2022-10-16T14:14:49;2.67;;;0.70;;
22034;SDS011;11181;51.002;4.356;2022-10-16T14:17:18;2.65;;;0.60;;
22034;SDS011;11181;51.002;4.356;2022-10-16T14:19:48;2.53;;;1.05;;
22034;SDS011;11181;51.002;4.356;2022-10-16T14:22:21;1.05;;;0.60;;
22034;SDS011;11181;51.002;4.356;2022-10-16T14:24:55;1.63;;;0.98;;
22034;SDS011;11181;51.002;4.356;2022-10-16T14:27:28;2.13;;;0.98;;
22034;SDS011;11181;51.002;4.356;2022-10-16T14:30:10;1.13;;;0.88;;
22034;SDS011;11181;51.002;4.356;2022-10-16T14:32:41;1.52;;;0.75;;
22034;SDS011;11181;51.002;4.356;2022-10-16T14:35:22;6.00;;;1.33;;
22034;SDS011;11181;51.002;4.356;2022-10-16T14:37:54;6.00;;;1.42;;
22034;SDS011;11181;51.002;4.356;2022-10-16T14:40:23;2.97;;;0.80;;
22034;SDS011;11181;51.002;4.356;2022-10-16T14:42:51;6.55;;;0.98;;
22034;SDS011;11181;51.002;4.356;2022-10-16T14:45:20;3.47;;;1.02;;
22034;SDS011;11181;51.002;4.356;2022-10-16T14:47:50;3.20;;;0.85;;
22034;SDS011;11181;51.002;4.356;2022-10-16T14:50:19;3.50;;;1.30;;
22034;SDS011;11181;51.002;4.356;2022-10-16T14:52:46;1.80;;;0.80;;
22034;SDS011;11181;51.002;4.356;2022-10-16T14:55:13;4.03;;;1.00;;
22034;SDS011;11181;51.002;4.356;2022-10-16T14:57:40;1.80;;;0.65;;
22034;SDS011;11181;51.002;4.356;2022-10-16T15:00:10;2.85;;;1.13;;
22034;SDS011;11181;51.002;4.356;2022-10-16T15:02:43;1.73;;;1.23;;
22034;SDS011;11181;51.002;4.356;2022-10-16T15:05:12;2.10;;;0.80;;
22034;SDS011;11181;51.002;4.356;2022-10-16T15:07:41;3.05;;;0.90;;
22034;SDS011;11181;51.002;4.356;2022-10-16T15:10:08;3.00;;;1.30;;
22034;SDS011;11181;51.002;4.356;2022-10-16T15:12:36;4.07;;;1.10;;
22034;SDS011;11181;51.002;4.356;2022-10-16T15:15:09;6.15;;;1.83;;
22034;SDS011;11181;51.002;4.356;2022-10-16T15:17:50;2.60;;;0.90;;